Time,TemperatureF,DewpointF,PressureIn,WindDirection,WindDirectionDegrees,WindSpeedMPH,WindSpeedGustMPH,Humidity,HourlyPrecipIn,Conditions,Clouds,dailyrainin,SoftwareType,DateUTC
2013-08-25 01:30:00,78.1,56.2,27.90,NE,36,0.0,0.0,47,0.00,CLR,CLR,0.00,WeatherDisplay:10.37,2013-08-24 22:30:00,
2013-08-25 01:40:00,78.4,57.7,27.91,NNE,13,1.0,3.0,49,0.00,CLR,CLR,0.00,WeatherDisplay:10.37,2013-08-24 22:40:00,
2013-08-25 01:50:00,78.4,57.7,27.91,NE,45,1.0,3.0,49,0.00,CLR,CLR,0.00,WeatherDisplay:10.37,2013-08-24 22:50:00,
2013-08-25 02:00:00,78.4,57.7,27.91,NE,45,1.0,3.0,49,0.00,CLR,CLR,0.00,WeatherDisplay:10.37,2013-08-24 23:00:00,
2013-08-25 02:10:00,78.1,56.8,27.90,NE,45,1.0,3.0,48,0.00,CLR,CLR,0.00,WeatherDisplay:10.37,2013-08-24 23:10:00,
2013-08-25 02:20:00,78.1,56.8,27.90,NE,45,1.0,2.0,48,0.00,CLR,CLR,0.00,WeatherDisplay:10.37,2013-08-24 23:20:00,
2013-08-25 02:30:00,78.1,56.8,27.90,NE,45,1.0,2.0,48,0.00,CLR,CLR,0.00,WeatherDisplay:10.37,2013-08-24 23:30:00,
2013-08-25 02:40:00,78.1,56.8,27.91,NE,45,1.0,3.0,48,0.00,CLR,CLR,0.00,WeatherDisplay:10.37,2013-08-24 23:40:00,
2013-08-25 02:50:00,78.1,56.8,27.91,NE,45,1.0,3.0,48,0.00,CLR,CLR,0.00,WeatherDisplay:10.37,2013-08-24 23:50:00,
2013-08-25 03:00:00,78.1,56.8,27.91,NE,45,1.0,3.0,48,0.00,CLR,CLR,0.00,WeatherDisplay:10.37,2013-08-25 00:00:00,
2013-08-25 03:10:00,77.9,55.5,27.90,NE,45,1.0,3.0,46,0.00,CLR,CLR,0.00,WeatherDisplay:10.37,2013-08-25 00:10:00,
2013-08-25 03:20:00,77.9,55.5,27.90,NE,45,1.0,2.0,46,0.00,CLR,CLR,0.00,WeatherDisplay:10.37,2013-08-25 00:20:00,
2013-08-25 03:30:00,77.9,55.5,27.90,NE,45,1.0,2.0,46,0.00,CLR,CLR,0.00,WeatherDisplay:10.37,2013-08-25 00:30:00,
2013-08-25 03:40:00,77.7,54.7,27.92,NE,45,1.0,3.0,45,0.00,CLR,CLR,0.00,WeatherDisplay:10.37,2013-08-25 00:40:00,
2013-08-25 03:50:00,77.7,54.7,27.92,NE,45,1.0,3.0,45,0.00,CLR,CLR,0.00,WeatherDisplay:10.37,2013-08-25 00:50:00,
2013-08-25 04:00:00,77.7,54.7,27.92,NE,45,1.0,3.0,45,0.00,CLR,CLR,0.00,WeatherDisplay:10.37,2013-08-25 01:00:00,
2013-08-25 04:10:00,77.0,54.0,27.92,NE,45,0.0,3.0,45,0.00,CLR,CLR,0.00,WeatherDisplay:10.37,2013-08-25 01:10:00,
2013-08-25 04:20:00,77.0,54.0,27.92,NE,45,0.0,1.0,45,0.00,CLR,CLR,0.00,WeatherDisplay:10.37,2013-08-25 01:20:00,
2013-08-25 04:30:00,77.0,54.0,27.92,NE,45,0.0,1.0,45,0.00,CLR,CLR,0.00,WeatherDisplay:10.37,2013-08-25 01:30:00,
2013-08-25 04:40:00,76.1,55.0,27.92,NE,45,0.0,2.0,48,0.00,CLR,CLR,0.00,WeatherDisplay:10.37,2013-08-25 01:40:00,
2013-08-25 04:50:00,76.1,55.0,27.92,NE,45,0.0,2.0,48,0.00,CLR,CLR,0.00,WeatherDisplay:10.37,2013-08-25 01:50:00,
2013-08-25 05:00:00,76.1,55.0,27.92,NE,45,0.0,2.0,48,0.00,CLR,CLR,0.00,WeatherDisplay:10.37,2013-08-25 02:00:00,
2013-08-25 05:10:00,76.6,54.9,27.90,NE,45,1.0,2.0,47,0.00,CLR,CLR,0.00,WeatherDisplay:10.37,2013-08-25 02:10:00,
2013-08-25 05:20:00,76.6,54.9,27.90,NE,45,1.0,2.0,47,0.00,CLR,CLR,0.00,WeatherDisplay:10.37,2013-08-25 02:20:00,
2013-08-25 05:30:00,76.6,54.9,27.90,NE,45,1.0,2.0,47,0.00,CLR,CLR,0.00,WeatherDisplay:10.37,2013-08-25 02:30:00,
2013-08-25 05:40:00,77.5,55.7,27.89,NE,45,1.0,2.0,47,0.00,CLR,CLR,0.00,WeatherDisplay:10.37,2013-08-25 02:40:00,
2013-08-25 05:50:00,77.5,55.7,27.89,NE,45,1.0,2.0,47,0.00,CLR,CLR,0.00,WeatherDisplay:10.37,2013-08-25 02:50:00,
2013-08-25 06:00:00,77.5,55.7,27.89,NE,45,1.0,2.0,47,0.00,CLR,CLR,0.00,WeatherDisplay:10.37,2013-08-25 03:00:00,
2013-08-25 06:10:00,75.2,57.4,27.89,NE,45,0.0,2.0,54,0.00,CLR,CLR,0.00,WeatherDisplay:10.37,2013-08-25 03:10:00,
2013-08-25 06:20:00,75.2,57.4,27.89,NE,45,0.0,0.0,54,0.00,CLR,CLR,0.00,WeatherDisplay:10.37,2013-08-25 03:20:00,
2013-08-25 06:30:00,75.2,57.4,27.89,NE,45,0.0,0.0,54,0.00,CLR,CLR,0.00,WeatherDisplay:10.37,2013-08-25 03:30:00,
2013-08-25 06:40:00,75.0,62.0,27.89,NE,45,1.0,2.0,64,0.00,CLR,CLR,0.00,WeatherDisplay:10.37,2013-08-25 03:40:00,
2013-08-25 06:50:00,75.0,62.0,27.89,NE,45,1.0,2.0,64,0.00,CLR,CLR,0.00,WeatherDisplay:10.37,2013-08-25 03:50:00,
2013-08-25 07:00:00,75.0,62.0,27.89,NE,45,1.0,2.0,64,0.00,CLR,CLR,0.00,WeatherDisplay:10.37,2013-08-25 04:00:00,
2013-08-25 07:10:00,76.6,59.3,27.89,NE,45,0.0,2.0,55,0.00,CLR,CLR,0.00,WeatherDisplay:10.37,2013-08-25 04:10:00,
2013-08-25 07:20:00,76.6,59.3,27.89,NE,45,0.0,0.0,55,0.00,CLR,CLR,0.00,WeatherDisplay:10.37,2013-08-25 04:20:00,
2013-08-25 07:30:00,76.6,59.3,27.89,NE,45,0.0,0.0,55,0.00,CLR,CLR,0.00,WeatherDisplay:10.37,2013-08-25 04:30:00,
2013-08-25 07:40:00,78.1,61.6,27.89,NE,45,2.0,4.0,57,0.00,CLR,CLR,0.00,WeatherDisplay:10.37,2013-08-25 04:40:00,
2013-08-25 07:50:00,78.1,61.6,27.89,NE,45,2.0,4.0,57,0.00,CLR,CLR,0.00,WeatherDisplay:10.37,2013-08-25 04:50:00,
2013-08-25 08:00:00,78.1,61.6,27.89,NE,45,2.0,4.0,57,0.00,CLR,CLR,0.00,WeatherDisplay:10.37,2013-08-25 05:00:00,
2013-08-25 08:10:00,77.9,62.9,27.89,NE,45,1.0,4.0,60,0.00,CLR,CLR,0.00,WeatherDisplay:10.37,2013-08-25 05:10:00,
2013-08-25 08:20:00,77.9,62.9,27.89,NE,45,1.0,2.0,60,0.00,CLR,CLR,0.00,WeatherDisplay:10.37,2013-08-25 05:20:00,
2013-08-25 08:30:00,77.9,62.9,27.89,NE,45,1.0,2.0,60,0.00,CLR,CLR,0.00,WeatherDisplay:10.37,2013-08-25 05:30:00,
2013-08-25 08:40:00,76.6,64.0,27.88,NE,45,1.0,2.0,65,0.00,CLR,CLR,0.00,WeatherDisplay:10.37,2013-08-25 05:40:00,
2013-08-25 08:50:00,76.6,64.0,27.88,NE,45,1.0,2.0,65,0.00,CLR,CLR,0.00,WeatherDisplay:10.37,2013-08-25 05:50:00,
2013-08-25 09:00:00,76.6,64.0,27.88,NE,45,1.0,2.0,65,0.00,CLR,CLR,0.00,WeatherDisplay:10.37,2013-08-25 06:00:00,
2013-08-25 09:10:00,76.8,64.2,27.88,NE,45,0.0,2.0,65,0.00,CLR,CLR,0.00,WeatherDisplay:10.37,2013-08-25 06:10:00,
2013-08-25 09:20:00,76.8,64.2,27.88,NE,45,0.0,1.0,65,0.00,CLR,CLR,0.00,WeatherDisplay:10.37,2013-08-25 06:20:00,
2013-08-25 09:30:00,76.8,64.2,27.88,NE,45,0.0,1.0,65,0.00,CLR,CLR,0.00,WeatherDisplay:10.37,2013-08-25 06:30:00,
2013-08-25 09:40:00,80.6,66.8,27.89,NE,45,0.0,1.0,63,0.00,CLR,CLR,0.00,WeatherDisplay:10.37,2013-08-25 06:40:00,
2013-08-25 09:50:00,80.6,66.8,27.89,NE,45,0.0,0.0,63,0.00,CLR,CLR,0.00,WeatherDisplay:10.37,2013-08-25 06:50:00,
2013-08-25 10:00:00,80.6,66.8,27.89,NE,45,0.0,0.0,63,0.00,CLR,CLR,0.00,WeatherDisplay:10.37,2013-08-25 07:00:00,
2013-08-25 10:10:00,87.1,67.9,27.89,NE,45,0.0,0.0,53,0.00,CLR,CLR,0.00,WeatherDisplay:10.37,2013-08-25 07:10:00,
2013-08-25 10:20:00,87.1,67.9,27.89,NE,45,0.0,0.0,53,0.00,CLR,CLR,0.00,WeatherDisplay:10.37,2013-08-25 07:20:00,
2013-08-25 10:30:00,87.1,67.9,27.89,NE,45,0.0,0.0,53,0.00,CLR,CLR,0.00,WeatherDisplay:10.37,2013-08-25 07:30:00,
2013-08-25 10:40:00,87.8,65.7,27.90,NE,45,0.0,2.0,48,0.00,CLR,CLR,0.00,WeatherDisplay:10.37,2013-08-25 07:40:00,
2013-08-25 10:50:00,87.8,65.7,27.90,NE,45,0.0,2.0,48,0.00,CLR,CLR,0.00,WeatherDisplay:10.37,2013-08-25 07:50:00,
2013-08-25 11:00:00,87.8,65.7,27.90,NE,45,0.0,2.0,48,0.00,CLR,CLR,0.00,WeatherDisplay:10.37,2013-08-25 08:00:00,
2013-08-25 11:10:00,88.3,63.0,27.90,NE,45,1.0,4.0,43,0.00,CLR,CLR,0.00,WeatherDisplay:10.37,2013-08-25 08:10:00,
2013-08-25 11:20:00,88.3,63.0,27.90,NE,45,1.0,4.0,43,0.00,CLR,CLR,0.00,WeatherDisplay:10.37,2013-08-25 08:20:00,
2013-08-25 11:30:00,88.3,63.0,27.90,NE,45,1.0,4.0,43,0.00,CLR,CLR,0.00,WeatherDisplay:10.37,2013-08-25 08:30:00,
2013-08-25 11:40:00,89.2,67.0,27.91,NE,45,0.0,4.0,48,0.00,CLR,CLR,0.00,WeatherDisplay:10.37,2013-08-25 08:40:00,
2013-08-25 11:50:00,89.2,67.0,27.91,NE,45,0.0,2.0,48,0.00,CLR,CLR,0.00,WeatherDisplay:10.37,2013-08-25 08:50:00,
2013-08-25 12:00:00,89.2,67.0,27.91,NE,45,0.0,2.0,48,0.00,CLR,CLR,0.00,WeatherDisplay:10.37,2013-08-25 09:00:00,
2013-08-25 12:10:00,90.3,66.7,27.92,NE,45,1.0,2.0,46,0.00,CLR,CLR,0.00,WeatherDisplay:10.37,2013-08-25 09:10:00,
2013-08-25 12:20:00,90.3,66.7,27.92,NE,45,1.0,2.0,46,0.00,CLR,CLR,0.00,WeatherDisplay:10.37,2013-08-25 09:20:00,
2013-08-25 12:30:00,90.3,66.7,27.92,NE,45,1.0,2.0,46,0.00,CLR,CLR,0.00,WeatherDisplay:10.37,2013-08-25 09:30:00,
2013-08-25 12:40:00,91.9,69.4,27.92,NE,45,1.0,3.0,48,0.00,CLR,CLR,0.00,WeatherDisplay:10.37,2013-08-25 09:40:00,
2013-08-25 12:50:00,91.9,69.4,27.92,NE,45,1.0,3.0,48,0.00,CLR,CLR,0.00,WeatherDisplay:10.37,2013-08-25 09:50:00,
2013-08-25 13:00:00,91.9,69.4,27.92,NE,45,1.0,3.0,48,0.00,CLR,CLR,0.00,WeatherDisplay:10.37,2013-08-25 10:00:00,
2013-08-25 13:10:00,90.1,71.8,27.91,NE,45,5.0,7.0,55,0.00,CLR,CLR,0.00,WeatherDisplay:10.37,2013-08-25 10:10:00,
2013-08-25 13:20:00,90.1,71.8,27.91,NE,45,5.0,7.0,55,0.00,CLR,CLR,0.00,WeatherDisplay:10.37,2013-08-25 10:20:00,
2013-08-25 13:30:00,90.1,71.8,27.91,NE,45,5.0,7.0,55,0.00,CLR,CLR,0.00,WeatherDisplay:10.37,2013-08-25 10:30:00,
2013-08-25 13:40:00,91.2,73.3,27.91,NE,45,1.0,7.0,56,0.00,CLR,CLR,0.00,WeatherDisplay:10.37,2013-08-25 10:40:00,
2013-08-25 13:50:00,91.2,73.3,27.91,NE,45,1.0,2.0,56,0.00,CLR,CLR,0.00,WeatherDisplay:10.37,2013-08-25 10:50:00,
2013-08-25 14:00:00,91.2,73.3,27.91,NE,45,1.0,2.0,56,0.00,CLR,CLR,0.00,WeatherDisplay:10.37,2013-08-25 11:00:00,
2013-08-25 14:10:00,91.9,71.8,27.90,NE,45,2.0,4.0,52,0.00,CLR,CLR,0.00,WeatherDisplay:10.37,2013-08-25 11:10:00,
2013-08-25 14:20:00,91.9,71.8,27.90,NE,45,2.0,4.0,52,0.00,CLR,CLR,0.00,WeatherDisplay:10.37,2013-08-25 11:20:00,
2013-08-25 14:30:00,91.9,71.8,27.90,NE,45,2.0,4.0,52,0.00,CLR,CLR,0.00,WeatherDisplay:10.37,2013-08-25 11:30:00,
2013-08-25 14:40:00,88.9,71.2,27.90,NE,45,5.0,7.0,56,0.00,CLR,CLR,0.00,WeatherDisplay:10.37,2013-08-25 11:40:00,
2013-08-25 14:50:00,88.9,71.2,27.90,NE,45,5.0,7.0,56,0.00,CLR,CLR,0.00,WeatherDisplay:10.37,2013-08-25 11:50:00,
2013-08-25 15:00:00,88.9,71.2,27.90,NE,45,5.0,7.0,56,0.00,CLR,CLR,0.00,WeatherDisplay:10.37,2013-08-25 12:00:00,
2013-08-25 15:10:00,89.8,67.5,27.89,NE,45,5.0,8.0,48,0.00,CLR,CLR,0.00,WeatherDisplay:10.37,2013-08-25 12:10:00,
2013-08-25 15:20:00,89.8,67.5,27.89,NE,45,5.0,8.0,48,0.00,CLR,CLR,0.00,WeatherDisplay:10.37,2013-08-25 12:20:00,
2013-08-25 15:30:00,89.8,67.5,27.89,NE,45,5.0,8.0,48,0.00,CLR,CLR,0.00,WeatherDisplay:10.37,2013-08-25 12:30:00,
2013-08-25 15:40:00,88.9,69.0,27.89,NE,45,6.0,8.0,52,0.00,CLR,CLR,0.00,WeatherDisplay:10.37,2013-08-25 12:40:00,
2013-08-25 15:50:00,88.9,69.0,27.89,NE,45,6.0,8.0,52,0.00,CLR,CLR,0.00,WeatherDisplay:10.37,2013-08-25 12:50:00,
2013-08-25 16:00:00,88.9,69.0,27.89,NE,45,6.0,8.0,52,0.00,CLR,CLR,0.00,WeatherDisplay:10.37,2013-08-25 13:00:00,
2013-08-25 16:10:00,87.6,64.9,27.90,NE,45,6.0,9.0,47,0.00,CLR,CLR,0.00,WeatherDisplay:10.37,2013-08-25 13:10:00,
2013-08-25 16:20:00,87.6,64.9,27.90,NE,45,6.0,9.0,47,0.00,CLR,CLR,0.00,WeatherDisplay:10.37,2013-08-25 13:20:00,
2013-08-25 16:30:00,87.6,64.9,27.90,NE,45,6.0,9.0,47,0.00,CLR,CLR,0.00,WeatherDisplay:10.37,2013-08-25 13:30:00,
2013-08-25 16:40:00,89.1,65.6,27.89,NE,45,8.0,12.0,46,0.00,CLR,CLR,0.00,WeatherDisplay:10.37,2013-08-25 13:40:00,
2013-08-25 16:50:00,89.1,65.6,27.89,NE,45,8.0,12.0,46,0.00,CLR,CLR,0.00,WeatherDisplay:10.37,2013-08-25 13:50:00,
2013-08-25 17:00:00,89.1,65.6,27.89,NE,45,8.0,12.0,46,0.00,CLR,CLR,0.00,WeatherDisplay:10.37,2013-08-25 14:00:00,
2013-08-25 17:10:00,88.2,67.2,27.89,NE,45,7.0,12.0,50,0.00,CLR,CLR,0.00,WeatherDisplay:10.37,2013-08-25 14:10:00,
2013-08-25 17:20:00,88.2,67.2,27.89,NE,45,7.0,12.0,50,0.00,CLR,CLR,0.00,WeatherDisplay:10.37,2013-08-25 14:20:00,
2013-08-25 17:30:00,88.2,67.2,27.89,NE,45,7.0,12.0,50,0.00,CLR,CLR,0.00,WeatherDisplay:10.37,2013-08-25 14:30:00,
2013-08-25 17:40:00,89.6,62.1,27.89,NE,45,3.0,12.0,40,0.00,CLR,CLR,0.00,WeatherDisplay:10.37,2013-08-25 14:40:00,
2013-08-25 17:50:00,89.6,62.1,27.89,NE,45,3.0,7.0,40,0.00,CLR,CLR,0.00,WeatherDisplay:10.37,2013-08-25 14:50:00,
2013-08-25 18:00:00,89.6,62.1,27.89,NE,45,3.0,7.0,40,0.00,CLR,CLR,0.00,WeatherDisplay:10.37,2013-08-25 15:00:00,
2013-08-25 18:10:00,90.3,62.0,27.89,NE,45,8.0,11.0,39,0.00,CLR,CLR,0.00,WeatherDisplay:10.37,2013-08-25 15:10:00,
2013-08-25 18:20:00,90.3,62.0,27.89,NE,45,8.0,11.0,39,0.00,CLR,CLR,0.00,WeatherDisplay:10.37,2013-08-25 15:20:00,
2013-08-25 18:30:00,90.3,62.0,27.89,NE,45,8.0,11.0,39,0.00,CLR,CLR,0.00,WeatherDisplay:10.37,2013-08-25 15:30:00,
2013-08-25 18:40:00,91.8,55.0,27.89,NE,45,8.0,15.0,29,0.00,CLR,CLR,0.00,WeatherDisplay:10.37,2013-08-25 15:40:00,
2013-08-25 18:50:00,91.8,55.0,27.89,NE,45,8.0,15.0,29,0.00,CLR,CLR,0.00,WeatherDisplay:10.37,2013-08-25 15:50:00,
2013-08-25 19:01:00,91.8,55.0,27.89,NE,45,8.0,15.0,29,0.00,CLR,CLR,0.00,WeatherDisplay:10.37,2013-08-25 16:01:00,
2013-08-25 19:10:00,88.4,65.6,27.88,NE,45,3.0,9.0,47,0.00,CLR,CLR,0.00,WeatherDisplay:10.37,2013-08-25 16:10:00,
2013-08-25 19:20:00,87.7,68.5,27.88,NE,45,2.0,7.0,53,0.00,CLR,CLR,0.00,WeatherDisplay:10.37,2013-08-25 16:20:00,
2013-08-25 19:30:00,85.9,69.4,27.88,NE,45,3.0,8.0,58,0.00,CLR,CLR,0.00,WeatherDisplay:10.37,2013-08-25 16:30:00,
2013-08-25 19:40:00,83.9,69.1,27.88,NE,45,2.0,8.0,61,0.00,CLR,CLR,0.00,WeatherDisplay:10.37,2013-08-25 16:40:00,
2013-08-25 19:50:00,82.6,70.1,27.88,NE,45,1.0,6.0,66,0.00,CLR,CLR,0.00,WeatherDisplay:10.37,2013-08-25 16:50:00,
2013-08-25 20:00:00,81.5,69.1,27.88,NE,45,0.0,5.0,66,0.00,CLR,CLR,0.00,WeatherDisplay:10.37,2013-08-25 17:00:00,
2013-08-25 20:10:00,81.3,69.3,27.88,NE,45,2.0,6.0,67,0.00,CLR,CLR,0.00,WeatherDisplay:10.37,2013-08-25 17:10:00,
2013-08-25 20:20:00,80.8,68.8,27.88,NE,45,0.0,6.0,67,0.00,CLR,CLR,0.00,WeatherDisplay:10.37,2013-08-25 17:20:00,
2013-08-25 20:30:00,80.3,68.3,27.89,NE,45,1.0,3.0,67,0.00,CLR,CLR,0.00,WeatherDisplay:10.37,2013-08-25 17:30:00,
2013-08-25 20:40:00,79.9,67.1,27.89,NE,45,0.0,3.0,65,0.00,CLR,CLR,0.00,WeatherDisplay:10.37,2013-08-25 17:40:00,
2013-08-25 20:50:00,79.9,62.8,27.89,NE,45,1.0,4.0,56,0.00,CLR,CLR,0.00,WeatherDisplay:10.37,2013-08-25 17:50:00,
2013-08-25 21:00:00,80.2,61.6,27.89,NE,45,0.0,3.0,53,0.00,CLR,CLR,0.00,WeatherDisplay:10.37,2013-08-25 18:00:00,
2013-08-25 21:10:00,80.2,62.1,27.89,NE,45,0.0,2.0,54,0.00,CLR,CLR,0.00,WeatherDisplay:10.37,2013-08-25 18:10:00,
2013-08-25 21:20:00,79.7,62.1,27.90,NE,45,0.0,1.0,55,0.00,CLR,CLR,0.00,WeatherDisplay:10.37,2013-08-25 18:20:00,
2013-08-25 21:30:00,79.7,62.6,27.90,NE,45,0.0,1.0,56,0.00,CLR,CLR,0.00,WeatherDisplay:10.37,2013-08-25 18:30:00,
2013-08-25 21:40:00,79.3,62.3,27.90,NE,45,0.0,2.0,56,0.00,CLR,CLR,0.00,WeatherDisplay:10.37,2013-08-25 18:40:00,
2013-08-25 21:50:00,79.0,61.4,27.90,NE,45,0.0,2.0,55,0.00,CLR,CLR,0.00,WeatherDisplay:10.37,2013-08-25 18:50:00,
2013-08-25 22:00:00,78.6,60.6,27.90,NE,45,0.0,2.0,54,0.00,CLR,CLR,0.00,WeatherDisplay:10.37,2013-08-25 19:00:00,
2013-08-25 22:10:00,78.6,60.6,27.90,NE,45,0.0,1.0,54,0.00,CLR,CLR,0.00,WeatherDisplay:10.37,2013-08-25 19:10:00,
2013-08-25 22:20:00,78.3,59.2,27.90,NE,45,0.0,2.0,52,0.00,CLR,CLR,0.00,WeatherDisplay:10.37,2013-08-25 19:20:00,
2013-08-25 22:30:00,78.3,58.1,27.89,NE,45,1.0,2.0,50,0.00,CLR,CLR,0.00,WeatherDisplay:10.37,2013-08-25 19:30:00,
2013-08-25 22:40:00,78.1,57.9,27.90,NE,45,0.0,2.0,50,0.00,CLR,CLR,0.00,WeatherDisplay:10.37,2013-08-25 19:40:00,
2013-08-25 22:50:00,77.7,57.6,27.90,NE,45,0.0,2.0,50,0.00,CLR,CLR,0.00,WeatherDisplay:10.37,2013-08-25 19:50:00,
2013-08-25 23:00:00,77.7,57.0,27.89,NE,45,1.0,2.0,49,0.00,CLR,CLR,0.00,WeatherDisplay:10.37,2013-08-25 20:00:00,
2013-08-25 23:10:00,77.7,56.5,27.89,NE,45,1.0,2.0,48,0.00,CLR,CLR,0.00,WeatherDisplay:10.37,2013-08-25 20:10:00,
2013-08-25 23:20:00,77.7,57.0,27.89,NE,45,0.0,2.0,49,0.00,CLR,CLR,0.00,WeatherDisplay:10.37,2013-08-25 20:20:00,
2013-08-25 23:30:00,77.7,57.0,27.89,NE,45,1.0,2.0,49,0.00,CLR,CLR,0.00,WeatherDisplay:10.37,2013-08-25 20:30:00,
2013-08-25 23:40:00,77.7,57.6,27.89,NE,45,0.0,2.0,50,0.00,CLR,CLR,0.00,WeatherDisplay:10.37,2013-08-25 20:40:00,
2013-08-25 23:50:00,77.5,56.9,27.88,NE,45,0.0,2.0,49,0.00,CLR,CLR,0.00,WeatherDisplay:10.37,2013-08-25 20:50:00,